sensor_id;sensor_type;location;lat;lon;timestamp;temperature;humidity
16663;DHT22;8445;51.270;9.434;2022-08-19T00:01:53;20.30;77.90
16663;DHT22;8445;51.270;9.434;2022-08-19T00:04:23;20.30;77.70
16663;DHT22;8445;51.270;9.434;2022-08-19T00:06:52;20.30;78.80
16663;DHT22;8445;51.270;9.434;2022-08-19T00:09:21;20.30;77.60
16663;DHT22;8445;51.270;9.434;2022-08-19T00:11:48;20.30;80.20
16663;DHT22;8445;51.270;9.434;2022-08-19T00:14:16;20.30;78.40
16663;DHT22;8445;51.270;9.434;2022-08-19T00:16:44;20.30;77.90
16663;DHT22;8445;51.270;9.434;2022-08-19T00:19:13;20.30;77.60
16663;DHT22;8445;51.270;9.434;2022-08-19T00:21:39;20.30;77.20
16663;DHT22;8445;51.270;9.434;2022-08-19T00:24:07;20.30;77.70
16663;DHT22;8445;51.270;9.434;2022-08-19T00:26:35;20.20;77.00
16663;DHT22;8445;51.270;9.434;2022-08-19T00:29:03;20.20;77.30
16663;DHT22;8445;51.270;9.434;2022-08-19T00:31:31;20.20;77.80
16663;DHT22;8445;51.270;9.434;2022-08-19T00:33:57;20.20;78.70
16663;DHT22;8445;51.270;9.434;2022-08-19T00:36:23;20.20;77.90
16663;DHT22;8445;51.270;9.434;2022-08-19T00:38:49;20.10;77.30
16663;DHT22;8445;51.270;9.434;2022-08-19T00:41:20;20.20;78.70
16663;DHT22;8445;51.270;9.434;2022-08-19T00:46:38;20.20;78.20
16663;DHT22;8445;51.270;9.434;2022-08-19T00:49:13;20.20;78.70
16663;DHT22;8445;51.270;9.434;2022-08-19T00:51:51;20.20;79.20
16663;DHT22;8445;51.270;9.434;2022-08-19T00:54:25;20.10;80.20
16663;DHT22;8445;51.270;9.434;2022-08-19T00:56:52;20.10;79.50
16663;DHT22;8445;51.270;9.434;2022-08-19T00:59:19;20.20;78.20
16663;DHT22;8445;51.270;9.434;2022-08-19T01:01:46;20.10;78.40
16663;DHT22;8445;51.270;9.434;2022-08-19T01:04:13;20.10;78.30
16663;DHT22;8445;51.270;9.434;2022-08-19T01:06:40;20.10;78.10
16663;DHT22;8445;51.270;9.434;2022-08-19T01:09:08;20.10;78.70
16663;DHT22;8445;51.270;9.434;2022-08-19T01:11:40;20.10;78.50
16663;DHT22;8445;51.270;9.434;2022-08-19T01:14:10;20.10;79.10
16663;DHT22;8445;51.270;9.434;2022-08-19T01:16:38;20.00;79.10
16663;DHT22;8445;51.270;9.434;2022-08-19T01:19:22;20.00;78.50
16663;DHT22;8445;51.270;9.434;2022-08-19T01:22:08;20.00;79.40
16663;DHT22;8445;51.270;9.434;2022-08-19T01:24:41;20.00;78.40
16663;DHT22;8445;51.270;9.434;2022-08-19T01:27:08;20.00;78.00
16663;DHT22;8445;51.270;9.434;2022-08-19T01:29:38;19.90;78.20
16663;DHT22;8445;51.270;9.434;2022-08-19T01:32:12;19.90;79.00
16663;DHT22;8445;51.270;9.434;2022-08-19T01:34:40;19.90;78.50
16663;DHT22;8445;51.270;9.434;2022-08-19T01:37:11;19.90;78.30
16663;DHT22;8445;51.270;9.434;2022-08-19T01:39:40;19.90;78.30
16663;DHT22;8445;51.270;9.434;2022-08-19T01:42:08;19.90;79.30
16663;DHT22;8445;51.270;9.434;2022-08-19T01:44:35;19.90;78.70
16663;DHT22;8445;51.270;9.434;2022-08-19T01:47:02;19.90;79.40
16663;DHT22;8445;51.270;9.434;2022-08-19T01:49:29;19.90;78.50
16663;DHT22;8445;51.270;9.434;2022-08-19T01:51:55;19.90;78.90
16663;DHT22;8445;51.270;9.434;2022-08-19T01:54:23;20.00;79.30
16663;DHT22;8445;51.270;9.434;2022-08-19T01:56:51;19.90;80.60
16663;DHT22;8445;51.270;9.434;2022-08-19T01:59:20;20.00;80.10
16663;DHT22;8445;51.270;9.434;2022-08-19T02:01:49;20.00;79.60
16663;DHT22;8445;51.270;9.434;2022-08-19T02:04:14;20.00;79.10
16663;DHT22;8445;51.270;9.434;2022-08-19T02:12:15;20.00;78.80
16663;DHT22;8445;51.270;9.434;2022-08-19T02:14:41;20.00;79.10
16663;DHT22;8445;51.270;9.434;2022-08-19T02:17:08;19.90;78.90
16663;DHT22;8445;51.270;9.434;2022-08-19T02:19:34;20.00;79.80
16663;DHT22;8445;51.270;9.434;2022-08-19T02:22:00;19.90;80.60
16663;DHT22;8445;51.270;9.434;2022-08-19T02:24:27;20.00;79.90
16663;DHT22;8445;51.270;9.434;2022-08-19T02:26:53;20.00;79.60
16663;DHT22;8445;51.270;9.434;2022-08-19T02:29:19;19.90;79.70
16663;DHT22;8445;51.270;9.434;2022-08-19T02:31:45;19.90;79.30
16663;DHT22;8445;51.270;9.434;2022-08-19T02:34:12;19.90;79.30
16663;DHT22;8445;51.270;9.434;2022-08-19T02:36:37;19.90;79.10
16663;DHT22;8445;51.270;9.434;2022-08-19T02:39:03;19.90;79.00
16663;DHT22;8445;51.270;9.434;2022-08-19T02:41:32;19.90;79.40
16663;DHT22;8445;51.270;9.434;2022-08-19T02:44:00;19.90;79.50
16663;DHT22;8445;51.270;9.434;2022-08-19T02:46:32;19.90;79.30
16663;DHT22;8445;51.270;9.434;2022-08-19T02:49:04;19.80;79.30
16663;DHT22;8445;51.270;9.434;2022-08-19T02:51:38;19.80;79.10
16663;DHT22;8445;51.270;9.434;2022-08-19T02:54:06;19.80;79.10
16663;DHT22;8445;51.270;9.434;2022-08-19T02:56:35;19.80;79.30
16663;DHT22;8445;51.270;9.434;2022-08-19T02:59:03;19.80;79.20
16663;DHT22;8445;51.270;9.434;2022-08-19T03:01:35;19.70;80.10
16663;DHT22;8445;51.270;9.434;2022-08-19T03:04:02;19.70;79.70
16663;DHT22;8445;51.270;9.434;2022-08-19T03:06:30;19.70;80.10
16663;DHT22;8445;51.270;9.434;2022-08-19T03:08:57;19.70;80.30
16663;DHT22;8445;51.270;9.434;2022-08-19T03:11:31;19.70;80.20
16663;DHT22;8445;51.270;9.434;2022-08-19T03:13:58;19.70;80.10
16663;DHT22;8445;51.270;9.434;2022-08-19T03:16:27;19.70;79.80
16663;DHT22;8445;51.270;9.434;2022-08-19T03:18:56;19.70;79.80
16663;DHT22;8445;51.270;9.434;2022-08-19T03:21:27;19.70;79.90
16663;DHT22;8445;51.270;9.434;2022-08-19T03:23:57;19.70;79.60
16663;DHT22;8445;51.270;9.434;2022-08-19T03:26:26;19.70;79.70
16663;DHT22;8445;51.270;9.434;2022-08-19T03:28:52;19.60;79.50
16663;DHT22;8445;51.270;9.434;2022-08-19T03:31:21;19.70;79.60
16663;DHT22;8445;51.270;9.434;2022-08-19T03:33:49;19.70;79.80
16663;DHT22;8445;51.270;9.434;2022-08-19T03:36:19;19.70;79.60
16663;DHT22;8445;51.270;9.434;2022-08-19T03:38:54;19.70;79.50
16663;DHT22;8445;51.270;9.434;2022-08-19T03:41:24;19.70;79.30
16663;DHT22;8445;51.270;9.434;2022-08-19T03:43:53;19.70;79.30
16663;DHT22;8445;51.270;9.434;2022-08-19T03:46:22;19.60;79.20
16663;DHT22;8445;51.270;9.434;2022-08-19T03:48:55;19.70;79.20
16663;DHT22;8445;51.270;9.434;2022-08-19T03:51:24;19.60;78.80
16663;DHT22;8445;51.270;9.434;2022-08-19T03:54:03;19.60;78.70
16663;DHT22;8445;51.270;9.434;2022-08-19T03:56:38;19.60;78.70
16663;DHT22;8445;51.270;9.434;2022-08-19T03:59:08;19.60;78.70
16663;DHT22;8445;51.270;9.434;2022-08-19T04:01:36;19.60;78.70
16663;DHT22;8445;51.270;9.434;2022-08-19T04:04:02;19.50;78.60
16663;DHT22;8445;51.270;9.434;2022-08-19T04:06:30;19.60;78.60
16663;DHT22;8445;51.270;9.434;2022-08-19T04:08:59;19.50;78.60
16663;DHT22;8445;51.270;9.434;2022-08-19T04:11:30;19.50;78.50
16663;DHT22;8445;51.270;9.434;2022-08-19T04:13:59;19.50;78.50
16663;DHT22;8445;51.270;9.434;2022-08-19T04:16:27;19.50;78.50
16663;DHT22;8445;51.270;9.434;2022-08-19T04:18:59;19.50;78.50
16663;DHT22;8445;51.270;9.434;2022-08-19T04:21:26;19.50;78.50
16663;DHT22;8445;51.270;9.434;2022-08-19T04:23:54;19.50;78.40
16663;DHT22;8445;51.270;9.434;2022-08-19T04:26:24;19.40;78.40
16663;DHT22;8445;51.270;9.434;2022-08-19T04:28:53;19.40;78.30
16663;DHT22;8445;51.270;9.434;2022-08-19T04:31:25;19.40;78.30
16663;DHT22;8445;51.270;9.434;2022-08-19T04:33:59;19.40;79.20
16663;DHT22;8445;51.270;9.434;2022-08-19T04:36:33;19.40;78.30
16663;DHT22;8445;51.270;9.434;2022-08-19T04:39:05;19.40;78.30
16663;DHT22;8445;51.270;9.434;2022-08-19T04:41:33;19.40;78.30
16663;DHT22;8445;51.270;9.434;2022-08-19T04:44:18;19.40;78.30
16663;DHT22;8445;51.270;9.434;2022-08-19T04:46:45;19.30;78.20
16663;DHT22;8445;51.270;9.434;2022-08-19T04:49:14;19.30;78.20
16663;DHT22;8445;51.270;9.434;2022-08-19T04:51:44;19.30;78.10
16663;DHT22;8445;51.270;9.434;2022-08-19T04:54:13;19.30;78.20
16663;DHT22;8445;51.270;9.434;2022-08-19T04:56:40;19.30;78.10
16663;DHT22;8445;51.270;9.434;2022-08-19T04:59:07;19.30;78.10
16663;DHT22;8445;51.270;9.434;2022-08-19T05:01:34;19.30;78.10
16663;DHT22;8445;51.270;9.434;2022-08-19T05:04:04;19.30;78.10
16663;DHT22;8445;51.270;9.434;2022-08-19T05:06:32;19.40;78.10
16663;DHT22;8445;51.270;9.434;2022-08-19T05:09:00;19.40;78.10
16663;DHT22;8445;51.270;9.434;2022-08-19T05:11:33;19.50;78.10
16663;DHT22;8445;51.270;9.434;2022-08-19T05:14:08;19.50;78.00
16663;DHT22;8445;51.270;9.434;2022-08-19T05:16:38;19.50;77.90
16663;DHT22;8445;51.270;9.434;2022-08-19T05:19:04;19.70;78.00
16663;DHT22;8445;51.270;9.434;2022-08-19T05:21:49;19.70;77.80
16663;DHT22;8445;51.270;9.434;2022-08-19T05:24:33;19.80;77.70
16663;DHT22;8445;51.270;9.434;2022-08-19T05:27:00;19.90;77.60
16663;DHT22;8445;51.270;9.434;2022-08-19T05:29:29;20.10;77.50
16663;DHT22;8445;51.270;9.434;2022-08-19T05:31:58;20.20;77.40
16663;DHT22;8445;51.270;9.434;2022-08-19T05:34:25;20.40;77.20
16663;DHT22;8445;51.270;9.434;2022-08-19T05:36:57;20.60;76.90
16663;DHT22;8445;51.270;9.434;2022-08-19T05:39:31;20.70;76.60
16663;DHT22;8445;51.270;9.434;2022-08-19T05:42:03;20.90;76.00
16663;DHT22;8445;51.270;9.434;2022-08-19T05:44:36;20.90;75.80
16663;DHT22;8445;51.270;9.434;2022-08-19T05:47:06;21.00;75.80
16663;DHT22;8445;51.270;9.434;2022-08-19T05:49:34;21.10;75.30
16663;DHT22;8445;51.270;9.434;2022-08-19T05:52:07;21.20;76.30
16663;DHT22;8445;51.270;9.434;2022-08-19T05:54:38;21.30;75.30
16663;DHT22;8445;51.270;9.434;2022-08-19T05:57:07;21.30;75.10
16663;DHT22;8445;51.270;9.434;2022-08-19T05:59:34;21.40;75.00
16663;DHT22;8445;51.270;9.434;2022-08-19T06:02:01;21.40;75.00
16663;DHT22;8445;51.270;9.434;2022-08-19T06:04:28;21.40;74.90
16663;DHT22;8445;51.270;9.434;2022-08-19T06:06:54;21.40;74.70
16663;DHT22;8445;51.270;9.434;2022-08-19T06:09:21;21.50;74.50
16663;DHT22;8445;51.270;9.434;2022-08-19T06:11:51;21.40;74.50
16663;DHT22;8445;51.270;9.434;2022-08-19T06:14:22;21.40;74.60
16663;DHT22;8445;51.270;9.434;2022-08-19T06:16:51;21.50;74.60
16663;DHT22;8445;51.270;9.434;2022-08-19T06:19:20;21.50;74.70
16663;DHT22;8445;51.270;9.434;2022-08-19T06:21:50;21.50;74.60
16663;DHT22;8445;51.270;9.434;2022-08-19T06:24:21;21.50;74.50
16663;DHT22;8445;51.270;9.434;2022-08-19T06:26:50;21.50;74.30
16663;DHT22;8445;51.270;9.434;2022-08-19T06:29:20;21.60;74.20
16663;DHT22;8445;51.270;9.434;2022-08-19T06:31:50;21.60;74.30
16663;DHT22;8445;51.270;9.434;2022-08-19T06:34:18;21.60;74.20
16663;DHT22;8445;51.270;9.434;2022-08-19T06:36:47;21.70;74.40
16663;DHT22;8445;51.270;9.434;2022-08-19T06:39:23;21.70;74.10
16663;DHT22;8445;51.270;9.434;2022-08-19T06:41:54;21.70;74.20
16663;DHT22;8445;51.270;9.434;2022-08-19T06:44:24;21.60;73.80
16663;DHT22;8445;51.270;9.434;2022-08-19T06:46:52;21.60;74.10
16663;DHT22;8445;51.270;9.434;2022-08-19T06:49:19;21.50;74.10
16663;DHT22;8445;51.270;9.434;2022-08-19T06:51:47;21.60;74.30
16663;DHT22;8445;51.270;9.434;2022-08-19T06:54:15;21.70;74.40
16663;DHT22;8445;51.270;9.434;2022-08-19T06:56:42;21.70;74.20
16663;DHT22;8445;51.270;9.434;2022-08-19T06:59:12;21.90;74.50
16663;DHT22;8445;51.270;9.434;2022-08-19T07:01:44;22.10;74.70
16663;DHT22;8445;51.270;9.434;2022-08-19T07:04:15;22.40;74.70
16663;DHT22;8445;51.270;9.434;2022-08-19T07:06:43;22.70;74.50
16663;DHT22;8445;51.270;9.434;2022-08-19T07:09:11;23.10;73.90
16663;DHT22;8445;51.270;9.434;2022-08-19T07:11:50;23.40;72.60
16663;DHT22;8445;51.270;9.434;2022-08-19T07:14:24;23.60;72.30
16663;DHT22;8445;51.270;9.434;2022-08-19T07:16:54;23.70;72.10
16663;DHT22;8445;51.270;9.434;2022-08-19T07:19:22;24.00;72.00
16663;DHT22;8445;51.270;9.434;2022-08-19T07:21:53;24.00;71.60
16663;DHT22;8445;51.270;9.434;2022-08-19T07:24:22;24.20;70.90
16663;DHT22;8445;51.270;9.434;2022-08-19T07:26:50;24.10;70.30
16663;DHT22;8445;51.270;9.434;2022-08-19T07:29:19;24.10;71.00
16663;DHT22;8445;51.270;9.434;2022-08-19T07:31:51;24.00;70.30
16663;DHT22;8445;51.270;9.434;2022-08-19T07:34:21;24.00;70.90
16663;DHT22;8445;51.270;9.434;2022-08-19T07:36:49;23.90;70.50
16663;DHT22;8445;51.270;9.434;2022-08-19T07:39:23;24.00;71.30
16663;DHT22;8445;51.270;9.434;2022-08-19T07:41:51;24.10;70.80
16663;DHT22;8445;51.270;9.434;2022-08-19T07:44:19;24.10;69.20
16663;DHT22;8445;51.270;9.434;2022-08-19T07:46:48;24.20;70.20
16663;DHT22;8445;51.270;9.434;2022-08-19T07:49:17;24.30;69.00
16663;DHT22;8445;51.270;9.434;2022-08-19T07:51:51;24.40;69.20
16663;DHT22;8445;51.270;9.434;2022-08-19T07:54:18;24.60;69.00
16663;DHT22;8445;51.270;9.434;2022-08-19T07:56:46;24.60;68.20
16663;DHT22;8445;51.270;9.434;2022-08-19T07:59:12;24.60;67.30
16663;DHT22;8445;51.270;9.434;2022-08-19T08:01:39;24.60;67.80
16663;DHT22;8445;51.270;9.434;2022-08-19T08:04:06;24.50;67.80
16663;DHT22;8445;51.270;9.434;2022-08-19T08:06:52;24.40;67.70
16663;DHT22;8445;51.270;9.434;2022-08-19T08:09:40;24.40;68.90
16663;DHT22;8445;51.270;9.434;2022-08-19T08:12:10;24.30;67.60
16663;DHT22;8445;51.270;9.434;2022-08-19T08:14:51;24.30;67.30
16663;DHT22;8445;51.270;9.434;2022-08-19T08:17:22;24.30;65.10
16663;DHT22;8445;51.270;9.434;2022-08-19T08:19:50;24.30;66.00
16663;DHT22;8445;51.270;9.434;2022-08-19T08:22:19;24.20;66.10
16663;DHT22;8445;51.270;9.434;2022-08-19T08:25:10;24.10;66.40
16663;DHT22;8445;51.270;9.434;2022-08-19T08:27:40;24.20;67.00
16663;DHT22;8445;51.270;9.434;2022-08-19T08:30:09;24.50;67.20
16663;DHT22;8445;51.270;9.434;2022-08-19T08:32:38;24.50;66.20
16663;DHT22;8445;51.270;9.434;2022-08-19T08:35:09;24.60;66.70
16663;DHT22;8445;51.270;9.434;2022-08-19T08:37:38;24.60;66.10
16663;DHT22;8445;51.270;9.434;2022-08-19T08:40:18;24.60;66.00
16663;DHT22;8445;51.270;9.434;2022-08-19T08:43:08;24.80;65.60
16663;DHT22;8445;51.270;9.434;2022-08-19T08:46:15;25.10;63.60
16663;DHT22;8445;51.270;9.434;2022-08-19T08:48:54;25.20;62.10
16663;DHT22;8445;51.270;9.434;2022-08-19T08:51:33;25.30;63.50
16663;DHT22;8445;51.270;9.434;2022-08-19T08:54:10;25.30;59.90
16663;DHT22;8445;51.270;9.434;2022-08-19T08:56:42;25.20;64.30
16663;DHT22;8445;51.270;9.434;2022-08-19T08:59:24;25.20;63.80
16663;DHT22;8445;51.270;9.434;2022-08-19T09:01:57;25.20;64.60
16663;DHT22;8445;51.270;9.434;2022-08-19T09:04:24;25.10;64.80
16663;DHT22;8445;51.270;9.434;2022-08-19T09:07:02;25.10;64.30
16663;DHT22;8445;51.270;9.434;2022-08-19T09:10:08;25.20;63.80
16663;DHT22;8445;51.270;9.434;2022-08-19T09:16:12;25.10;62.10
16663;DHT22;8445;51.270;9.434;2022-08-19T09:18:44;25.40;64.00
16663;DHT22;8445;51.270;9.434;2022-08-19T09:21:14;25.80;63.70
16663;DHT22;8445;51.270;9.434;2022-08-19T09:23:40;26.10;63.50
16663;DHT22;8445;51.270;9.434;2022-08-19T09:26:14;26.20;62.00
16663;DHT22;8445;51.270;9.434;2022-08-19T09:28:43;26.10;60.90
16663;DHT22;8445;51.270;9.434;2022-08-19T09:31:13;26.20;62.90
16663;DHT22;8445;51.270;9.434;2022-08-19T09:33:40;26.20;62.10
16663;DHT22;8445;51.270;9.434;2022-08-19T09:36:12;26.40;62.20
16663;DHT22;8445;51.270;9.434;2022-08-19T09:38:40;26.30;62.00
16663;DHT22;8445;51.270;9.434;2022-08-19T09:41:15;26.40;62.20
16663;DHT22;8445;51.270;9.434;2022-08-19T09:43:46;26.80;62.60
16663;DHT22;8445;51.270;9.434;2022-08-19T09:46:14;26.90;61.60
16663;DHT22;8445;51.270;9.434;2022-08-19T09:48:41;26.80;60.90
16663;DHT22;8445;51.270;9.434;2022-08-19T09:51:14;27.10;61.50
16663;DHT22;8445;51.270;9.434;2022-08-19T09:53:44;27.20;60.70
16663;DHT22;8445;51.270;9.434;2022-08-19T09:56:12;27.20;60.70
16663;DHT22;8445;51.270;9.434;2022-08-19T09:58:39;27.00;59.70
16663;DHT22;8445;51.270;9.434;2022-08-19T10:01:07;26.80;59.90
16663;DHT22;8445;51.270;9.434;2022-08-19T10:03:35;26.60;59.00
16663;DHT22;8445;51.270;9.434;2022-08-19T10:06:04;26.50;59.80
16663;DHT22;8445;51.270;9.434;2022-08-19T10:08:36;26.70;60.60
16663;DHT22;8445;51.270;9.434;2022-08-19T10:11:04;26.90;60.60
16663;DHT22;8445;51.270;9.434;2022-08-19T10:13:31;26.90;59.70
16663;DHT22;8445;51.270;9.434;2022-08-19T10:16:11;26.70;59.70
16663;DHT22;8445;51.270;9.434;2022-08-19T10:18:44;26.40;56.60
16663;DHT22;8445;51.270;9.434;2022-08-19T10:21:16;26.10;59.60
16663;DHT22;8445;51.270;9.434;2022-08-19T10:23:46;26.20;59.80
16663;DHT22;8445;51.270;9.434;2022-08-19T10:26:18;26.70;60.00
16663;DHT22;8445;51.270;9.434;2022-08-19T10:28:46;27.30;60.70
16663;DHT22;8445;51.270;9.434;2022-08-19T10:31:19;27.60;58.50
16663;DHT22;8445;51.270;9.434;2022-08-19T10:33:50;27.90;59.50
16663;DHT22;8445;51.270;9.434;2022-08-19T10:36:30;28.00;57.20
16663;DHT22;8445;51.270;9.434;2022-08-19T10:39:08;28.00;56.50
16663;DHT22;8445;51.270;9.434;2022-08-19T10:41:37;27.90;56.20
16663;DHT22;8445;51.270;9.434;2022-08-19T10:44:10;27.60;56.40
16663;DHT22;8445;51.270;9.434;2022-08-19T10:46:41;27.80;54.30
16663;DHT22;8445;51.270;9.434;2022-08-19T10:49:11;27.70;56.20
16663;DHT22;8445;51.270;9.434;2022-08-19T10:51:38;27.70;55.50
16663;DHT22;8445;51.270;9.434;2022-08-19T10:54:24;27.70;56.60
16663;DHT22;8445;51.270;9.434;2022-08-19T10:57:10;27.70;56.60
16663;DHT22;8445;51.270;9.434;2022-08-19T10:59:36;27.50;55.50
16663;DHT22;8445;51.270;9.434;2022-08-19T11:02:05;27.20;55.90
16663;DHT22;8445;51.270;9.434;2022-08-19T11:04:35;27.20;56.40
16663;DHT22;8445;51.270;9.434;2022-08-19T11:07:03;27.00;55.70
16663;DHT22;8445;51.270;9.434;2022-08-19T11:09:30;26.70;55.90
16663;DHT22;8445;51.270;9.434;2022-08-19T11:12:00;26.70;56.20
16663;DHT22;8445;51.270;9.434;2022-08-19T11:14:33;26.70;56.00
16663;DHT22;8445;51.270;9.434;2022-08-19T11:17:00;26.70;56.20
16663;DHT22;8445;51.270;9.434;2022-08-19T11:19:26;26.60;55.70
16663;DHT22;8445;51.270;9.434;2022-08-19T11:21:52;26.40;55.70
16663;DHT22;8445;51.270;9.434;2022-08-19T11:24:25;26.20;55.80
16663;DHT22;8445;51.270;9.434;2022-08-19T11:26:54;26.00;55.50
16663;DHT22;8445;51.270;9.434;2022-08-19T11:29:29;25.70;56.40
16663;DHT22;8445;51.270;9.434;2022-08-19T11:31:56;25.60;56.50
16663;DHT22;8445;51.270;9.434;2022-08-19T11:34:27;25.60;56.70
16663;DHT22;8445;51.270;9.434;2022-08-19T11:36:55;25.60;57.00
16663;DHT22;8445;51.270;9.434;2022-08-19T11:39:32;25.70;57.30
16663;DHT22;8445;51.270;9.434;2022-08-19T11:42:06;26.00;56.30
16663;DHT22;8445;51.270;9.434;2022-08-19T11:44:54;26.10;57.10
16663;DHT22;8445;51.270;9.434;2022-08-19T11:47:23;26.40;56.10
16663;DHT22;8445;51.270;9.434;2022-08-19T11:49:49;26.40;55.40
16663;DHT22;8445;51.270;9.434;2022-08-19T11:52:15;26.40;55.80
16663;DHT22;8445;51.270;9.434;2022-08-19T11:54:41;26.40;56.00
16663;DHT22;8445;51.270;9.434;2022-08-19T11:57:07;26.40;55.90
16663;DHT22;8445;51.270;9.434;2022-08-19T11:59:32;26.40;56.40
16663;DHT22;8445;51.270;9.434;2022-08-19T12:01:58;26.70;56.40
16663;DHT22;8445;51.270;9.434;2022-08-19T12:04:24;27.10;56.20
16663;DHT22;8445;51.270;9.434;2022-08-19T12:06:50;27.20;55.10
16663;DHT22;8445;51.270;9.434;2022-08-19T12:09:16;27.30;53.80
16663;DHT22;8445;51.270;9.434;2022-08-19T12:11:43;27.30;54.20
16663;DHT22;8445;51.270;9.434;2022-08-19T12:14:11;27.30;54.60
16663;DHT22;8445;51.270;9.434;2022-08-19T12:16:38;27.60;54.80
16663;DHT22;8445;51.270;9.434;2022-08-19T12:19:05;27.80;54.60
16663;DHT22;8445;51.270;9.434;2022-08-19T12:21:33;27.80;53.30
16663;DHT22;8445;51.270;9.434;2022-08-19T12:24:02;27.40;52.40
16663;DHT22;8445;51.270;9.434;2022-08-19T12:26:30;27.20;53.60
16663;DHT22;8445;51.270;9.434;2022-08-19T12:28:57;27.00;54.80
16663;DHT22;8445;51.270;9.434;2022-08-19T12:31:26;26.90;54.40
16663;DHT22;8445;51.270;9.434;2022-08-19T12:33:54;27.00;53.80
16663;DHT22;8445;51.270;9.434;2022-08-19T12:36:22;26.90;53.10
16663;DHT22;8445;51.270;9.434;2022-08-19T12:38:48;26.90;53.10
16663;DHT22;8445;51.270;9.434;2022-08-19T12:41:15;26.80;52.80
16663;DHT22;8445;51.270;9.434;2022-08-19T12:43:44;26.80;53.50
16663;DHT22;8445;51.270;9.434;2022-08-19T12:46:13;26.80;53.40
16663;DHT22;8445;51.270;9.434;2022-08-19T12:48:39;26.60;50.60
16663;DHT22;8445;51.270;9.434;2022-08-19T12:51:10;26.40;52.60
16663;DHT22;8445;51.270;9.434;2022-08-19T12:53:38;26.20;52.60
16663;DHT22;8445;51.270;9.434;2022-08-19T12:56:04;26.10;52.60
16663;DHT22;8445;51.270;9.434;2022-08-19T12:58:31;26.10;53.00
16663;DHT22;8445;51.270;9.434;2022-08-19T13:01:08;26.10;53.40
16663;DHT22;8445;51.270;9.434;2022-08-19T13:03:42;26.10;52.40
16663;DHT22;8445;51.270;9.434;2022-08-19T13:06:09;26.50;53.50
16663;DHT22;8445;51.270;9.434;2022-08-19T13:08:38;26.80;53.20
16663;DHT22;8445;51.270;9.434;2022-08-19T13:11:14;27.20;52.60
16663;DHT22;8445;51.270;9.434;2022-08-19T13:13:46;27.40;49.30
16663;DHT22;8445;51.270;9.434;2022-08-19T13:16:16;27.40;48.10
16663;DHT22;8445;51.270;9.434;2022-08-19T13:18:45;27.50;49.20
16663;DHT22;8445;51.270;9.434;2022-08-19T13:21:18;27.60;50.70
16663;DHT22;8445;51.270;9.434;2022-08-19T13:23:46;27.60;49.50
16663;DHT22;8445;51.270;9.434;2022-08-19T13:26:12;27.50;50.20
16663;DHT22;8445;51.270;9.434;2022-08-19T13:28:39;27.50;50.10
16663;DHT22;8445;51.270;9.434;2022-08-19T13:31:26;27.70;50.80
16663;DHT22;8445;51.270;9.434;2022-08-19T13:34:12;27.70;49.50
16663;DHT22;8445;51.270;9.434;2022-08-19T13:36:39;27.50;49.60
16663;DHT22;8445;51.270;9.434;2022-08-19T13:39:06;27.50;50.20
16663;DHT22;8445;51.270;9.434;2022-08-19T13:41:34;27.60;50.30
16663;DHT22;8445;51.270;9.434;2022-08-19T13:44:02;27.90;50.20
16663;DHT22;8445;51.270;9.434;2022-08-19T13:46:28;28.00;50.70
16663;DHT22;8445;51.270;9.434;2022-08-19T13:48:56;28.30;49.80
16663;DHT22;8445;51.270;9.434;2022-08-19T13:51:22;28.40;50.00
16663;DHT22;8445;51.270;9.434;2022-08-19T13:53:50;28.40;49.00
16663;DHT22;8445;51.270;9.434;2022-08-19T13:56:17;28.50;49.40
16663;DHT22;8445;51.270;9.434;2022-08-19T13:58:45;28.50;50.10
16663;DHT22;8445;51.270;9.434;2022-08-19T14:01:11;28.60;49.90
16663;DHT22;8445;51.270;9.434;2022-08-19T14:03:37;28.70;49.40
16663;DHT22;8445;51.270;9.434;2022-08-19T14:06:06;28.70;49.50
16663;DHT22;8445;51.270;9.434;2022-08-19T14:08:32;28.60;49.10
16663;DHT22;8445;51.270;9.434;2022-08-19T14:10:58;28.30;48.60
16663;DHT22;8445;51.270;9.434;2022-08-19T14:13:27;28.40;50.00
16663;DHT22;8445;51.270;9.434;2022-08-19T14:15:53;28.20;49.00
16663;DHT22;8445;51.270;9.434;2022-08-19T14:18:19;28.40;49.20
16663;DHT22;8445;51.270;9.434;2022-08-19T14:20:45;28.60;48.90
16663;DHT22;8445;51.270;9.434;2022-08-19T14:23:11;28.70;48.40
16663;DHT22;8445;51.270;9.434;2022-08-19T14:25:39;29.00;48.50
16663;DHT22;8445;51.270;9.434;2022-08-19T14:28:05;29.30;48.50
16663;DHT22;8445;51.270;9.434;2022-08-19T14:30:34;29.60;47.40
16663;DHT22;8445;51.270;9.434;2022-08-19T14:33:03;29.80;47.60
16663;DHT22;8445;51.270;9.434;2022-08-19T14:35:33;29.90;47.40
16663;DHT22;8445;51.270;9.434;2022-08-19T14:38:01;29.90;47.00
16663;DHT22;8445;51.270;9.434;2022-08-19T14:40:29;30.00;47.00
16663;DHT22;8445;51.270;9.434;2022-08-19T14:43:01;30.20;47.40
16663;DHT22;8445;51.270;9.434;2022-08-19T14:45:35;30.20;43.20
16663;DHT22;8445;51.270;9.434;2022-08-19T14:48:06;30.40;46.30
16663;DHT22;8445;51.270;9.434;2022-08-19T14:50:34;30.40;46.30
16663;DHT22;8445;51.270;9.434;2022-08-19T14:53:05;30.70;46.00
16663;DHT22;8445;51.270;9.434;2022-08-19T14:55:34;30.80;46.50
16663;DHT22;8445;51.270;9.434;2022-08-19T14:58:06;31.00;45.00
16663;DHT22;8445;51.270;9.434;2022-08-19T15:00:32;31.00;43.20
16663;DHT22;8445;51.270;9.434;2022-08-19T15:02:58;31.00;45.60
16663;DHT22;8445;51.270;9.434;2022-08-19T15:05:24;31.00;44.90
16663;DHT22;8445;51.270;9.434;2022-08-19T15:07:50;30.90;45.50
16663;DHT22;8445;51.270;9.434;2022-08-19T15:10:16;30.90;45.70
16663;DHT22;8445;51.270;9.434;2022-08-19T15:12:42;30.80;45.50
16663;DHT22;8445;51.270;9.434;2022-08-19T15:15:10;30.50;43.50
16663;DHT22;8445;51.270;9.434;2022-08-19T15:17:40;30.20;44.00
16663;DHT22;8445;51.270;9.434;2022-08-19T15:20:08;29.90;43.00
16663;DHT22;8445;51.270;9.434;2022-08-19T15:22:37;29.70;43.80
16663;DHT22;8445;51.270;9.434;2022-08-19T15:25:06;29.50;43.80
16663;DHT22;8445;51.270;9.434;2022-08-19T15:27:34;29.00;42.80
16663;DHT22;8445;51.270;9.434;2022-08-19T15:30:00;28.60;42.60
16663;DHT22;8445;51.270;9.434;2022-08-19T15:32:27;28.30;42.70
16663;DHT22;8445;51.270;9.434;2022-08-19T15:34:58;28.00;43.00
16663;DHT22;8445;51.270;9.434;2022-08-19T15:37:30;27.80;41.80
16663;DHT22;8445;51.270;9.434;2022-08-19T15:39:56;27.60;43.50
16663;DHT22;8445;51.270;9.434;2022-08-19T15:42:24;27.60;44.10
16663;DHT22;8445;51.270;9.434;2022-08-19T15:44:52;27.70;44.40
16663;DHT22;8445;51.270;9.434;2022-08-19T15:47:19;27.90;44.30
16663;DHT22;8445;51.270;9.434;2022-08-19T15:49:45;28.00;44.00
16663;DHT22;8445;51.270;9.434;2022-08-19T15:52:11;28.00;43.90
16663;DHT22;8445;51.270;9.434;2022-08-19T15:54:37;28.10;44.00
16663;DHT22;8445;51.270;9.434;2022-08-19T15:57:03;28.10;43.70
16663;DHT22;8445;51.270;9.434;2022-08-19T15:59:47;28.10;43.60
16663;DHT22;8445;51.270;9.434;2022-08-19T16:02:32;28.00;43.70
16663;DHT22;8445;51.270;9.434;2022-08-19T16:05:34;28.00;43.70
16663;DHT22;8445;51.270;9.434;2022-08-19T16:08:21;27.80;43.50
16663;DHT22;8445;51.270;9.434;2022-08-19T16:10:47;27.70;43.40
16663;DHT22;8445;51.270;9.434;2022-08-19T16:13:13;27.70;42.90
16663;DHT22;8445;51.270;9.434;2022-08-19T16:15:39;27.40;43.50